Time;durP1;ratioP1;P1;durP2;ratioP2;P2;SDS_P1;SDS_P2;PMS_P1;PMS_P2;Temp;Humidity;BMP_temperature;BMP_pressure;BME280_temperature;BME280_humidity;BME280_pressure;Samples;Min_cycle;Max_cycle;Signal;HPM_P1;HPM_P2
2022/06/04 00:01:17;;;;;;;16.08;8.35;;;10.90;99.90;;;;;;5040537;28;20553;-42
2022/06/04 00:03:43;;;;;;;13.00;8.07;;;10.90;99.90;;;;;;5041700;28;20657;-42
2022/06/04 00:06:10;;;;;;;14.82;7.88;;;10.80;99.90;;;;;;5040979;28;20045;-42
2022/06/04 00:08:35;;;;;;;14.93;8.70;;;10.90;99.90;;;;;;5040342;28;20080;-43
2022/06/04 00:16:30;;;;;;;19.45;8.68;;;10.80;99.90;;;;;;5022843;28;20045;-43
2022/06/04 00:18:59;;;;;;;11.25;8.20;;;10.80;99.90;;;;;;5040457;28;20546;-43
2022/06/04 00:21:25;;;;;;;13.98;9.38;;;10.80;99.90;;;;;;5041134;28;20147;-44
2022/06/04 00:23:51;;;;;;;14.98;9.52;;;10.70;99.90;;;;;;5041724;28;20079;-44
2022/06/04 00:26:18;;;;;;;20.70;10.45;;;10.70;99.90;;;;;;5040112;28;20503;-42
2022/06/04 00:28:46;;;;;;;14.82;10.65;;;10.70;99.90;;;;;;5042511;28;20041;-45
2022/06/04 00:31:13;;;;;;;17.83;11.10;;;10.70;99.90;;;;;;5044639;28;20128;-45
2022/06/04 00:33:39;;;;;;;19.38;12.02;;;10.70;99.90;;;;;;5024020;28;20420;-46
2022/06/04 00:36:05;;;;;;;17.35;11.85;;;10.60;99.90;;;;;;5041819;28;20088;-46
2022/06/04 00:38:32;;;;;;;18.23;12.52;;;10.60;99.90;;;;;;5038908;28;20083;-42
2022/06/04 00:41:09;;;;;;;17.02;12.18;;;10.60;99.90;;;;;;5036153;28;20155;-42
2022/06/04 00:43:56;;;;;;;18.00;11.40;;;10.60;99.90;;;;;;5008702;28;20493;-43
2022/06/04 00:46:40;;;;;;;20.92;13.20;;;10.60;99.90;;;;;;5023880;28;20065;-44
2022/06/04 00:49:11;;;;;;;19.98;11.95;;;10.60;99.90;;;;;;5026162;28;20153;-44
2022/06/04 00:51:38;;;;;;;21.33;12.35;;;10.60;99.90;;;;;;5023277;28;20096;-42
2022/06/04 00:54:05;;;;;;;15.38;12.52;;;10.60;99.90;;;;;;5040803;28;20045;-43
2022/06/04 00:56:57;;;;;;;22.30;12.43;;;10.60;99.90;;;;;;5045140;28;20500;-44
2022/06/04 00:59:26;;;;;;;20.98;13.40;;;10.60;99.90;;;;;;4942342;28;20055;-44
2022/06/04 01:02:17;;;;;;;18.08;12.10;;;10.60;99.90;;;;;;4943695;29;20620;-43
2022/06/04 01:05:21;;;;;;;24.45;12.02;;;10.60;99.90;;;;;;4943612;29;20055;-44
2022/06/04 01:07:56;;;;;;;19.02;11.77;;;10.60;99.90;;;;;;4870499;29;20618;-43
2022/06/04 01:10:50;;;;;;;21.20;11.48;;;10.60;99.90;;;;;;4886286;29;20060;-43
2022/06/04 01:13:37;;;;;;;18.48;11.95;;;10.50;99.90;;;;;;4887157;29;20451;-44
2022/06/04 01:16:24;;;;;;;19.48;12.52;;;10.50;99.90;;;;;;4868001;29;20060;-44
2022/06/04 01:19:07;;;;;;;19.90;12.27;;;10.50;99.90;;;;;;4869320;29;20166;-43
2022/06/04 01:22:13;;;;;;;22.08;12.40;;;10.50;99.90;;;;;;4870797;29;20056;-43
2022/06/04 01:24:48;;;;;;;21.63;11.68;;;10.50;99.90;;;;;;4886441;29;20104;-43
2022/06/04 01:27:26;;;;;;;19.65;11.60;;;10.50;99.90;;;;;;4886055;29;20051;-43
2022/06/04 01:29:54;;;;;;;14.75;10.93;;;10.40;99.90;;;;;;4870415;29;20086;-43
2022/06/04 01:32:27;;;;;;;22.85;12.48;;;10.40;99.90;;;;;;4886441;29;20068;-43
2022/06/04 01:35:17;;;;;;;18.98;11.55;;;10.40;99.90;;;;;;4868004;29;20421;-45
2022/06/04 01:38:14;;;;;;;18.42;11.18;;;10.40;99.90;;;;;;4923108;29;20058;-44
2022/06/04 01:41:03;;;;;;;15.95;11.10;;;10.40;99.90;;;;;;4938242;28;20057;-44
2022/06/04 01:43:35;;;;;;;20.05;11.68;;;10.30;99.90;;;;;;4916324;28;20062;-42
2022/06/04 01:46:11;;;;;;;21.17;12.02;;;10.40;99.90;;;;;;5021914;28;20536;-44
2022/06/04 01:48:40;;;;;;;21.33;11.65;;;10.30;99.90;;;;;;5025069;28;20081;-44
2022/06/04 01:51:08;;;;;;;16.25;10.20;;;10.30;99.90;;;;;;5006313;28;20128;-43
2022/06/04 01:53:37;;;;;;;19.13;10.88;;;10.30;99.90;;;;;;5023661;28;20444;-43
2022/06/04 01:56:09;;;;;;;15.55;11.65;;;10.20;99.90;;;;;;5023762;28;20049;-42
2022/06/04 01:58:45;;;;;;;15.20;10.75;;;10.20;99.90;;;;;;5016526;28;20092;-47
2022/06/04 02:01:16;;;;;;;16.40;11.68;;;10.30;99.90;;;;;;5018797;28;20050;-43
2022/06/04 02:04:13;;;;;;;21.77;11.32;;;10.20;99.90;;;;;;5020244;28;20060;-43
2022/06/04 02:07:29;;;;;;;19.67;10.68;;;10.20;99.90;;;;;;5001768;28;20476;-43
2022/06/04 02:09:42;;;;;;;19.33;11.38;;;10.10;99.90;;;;;;5003591;28;20140;-43
2022/06/04 02:12:10;;;;;;;23.05;10.93;;;10.10;99.90;;;;;;5019430;28;20057;-42
2022/06/04 02:14:37;;;;;;;15.73;10.48;;;10.10;99.90;;;;;;5023703;28;20056;-42
2022/06/04 02:17:07;;;;;;;15.27;10.45;;;10.10;99.90;;;;;;5023721;28;20049;-43
2022/06/04 02:19:33;;;;;;;16.98;9.57;;;10.10;99.90;;;;;;5023075;28;20085;-42
2022/06/04 02:21:59;;;;;;;22.17;11.20;;;10.00;99.90;;;;;;5023311;28;20196;-44
2022/06/04 02:24:25;;;;;;;16.02;9.70;;;10.10;99.90;;;;;;5023319;28;20103;-42
2022/06/04 02:26:51;;;;;;;12.27;9.65;;;10.00;99.90;;;;;;5020850;28;20041;-43
2022/06/04 02:29:17;;;;;;;14.65;10.57;;;10.00;99.90;;;;;;5022863;28;20522;-42
2022/06/04 02:31:55;;;;;;;14.88;10.27;;;10.00;99.90;;;;;;5041479;28;20127;-43
2022/06/04 02:34:39;;;;;;;15.40;9.63;;;10.00;99.90;;;;;;5042738;28;20088;-43
2022/06/04 02:37:39;;;;;;;15.38;9.13;;;10.00;99.90;;;;;;5043350;28;20496;-42
2022/06/04 02:40:39;;;;;;;13.65;9.25;;;10.00;99.90;;;;;;4942649;29;20156;-42
2022/06/04 02:43:18;;;;;;;15.73;9.40;;;9.90;99.90;;;;;;4884956;29;20258;-43
2022/06/04 02:46:01;;;;;;;18.60;10.68;;;9.90;99.90;;;;;;4885792;29;20060;-43
2022/06/04 02:48:38;;;;;;;17.35;9.10;;;9.90;99.90;;;;;;4885604;29;20584;-42
2022/06/04 02:51:27;;;;;;;17.35;9.50;;;9.90;99.90;;;;;;4885214;29;20452;-42
2022/06/04 02:53:54;;;;;;;13.98;9.02;;;9.90;99.90;;;;;;4886118;29;20063;-43
2022/06/04 02:56:25;;;;;;;15.52;9.35;;;9.80;99.90;;;;;;4870977;29;20065;-43
2022/06/04 02:58:56;;;;;;;20.27;10.23;;;9.80;99.90;;;;;;4886524;29;20063;-48
2022/06/04 03:01:23;;;;;;;14.30;8.40;;;9.80;99.90;;;;;;4887064;29;20099;-44
2022/06/04 03:03:49;;;;;;;19.33;9.15;;;9.80;99.90;;;;;;4884940;29;20067;-45
2022/06/04 03:06:41;;;;;;;15.68;9.75;;;9.80;99.90;;;;;;4884745;29;20239;-44
2022/06/04 03:09:13;;;;;;;14.93;8.68;;;9.70;99.90;;;;;;4876526;29;20147;-43
2022/06/04 03:11:47;;;;;;;15.18;9.30;;;9.70;99.90;;;;;;4884431;29;20059;-43
2022/06/04 03:14:15;;;;;;;15.02;8.60;;;9.70;99.90;;;;;;4883741;29;20072;-42
2022/06/04 03:16:43;;;;;;;12.55;9.00;;;9.70;99.90;;;;;;4907291;29;20535;-41
2022/06/04 03:19:09;;;;;;;14.55;9.57;;;9.60;99.90;;;;;;4949966;28;20059;-43
2022/06/04 03:21:40;;;;;;;12.02;8.95;;;9.60;99.90;;;;;;5041932;28;20508;-42
2022/06/04 03:24:07;;;;;;;14.63;9.18;;;9.60;99.90;;;;;;5041972;28;20041;-43
2022/06/04 03:26:36;;;;;;;15.93;8.75;;;9.60;99.90;;;;;;5042266;28;20151;-42
2022/06/04 03:29:01;;;;;;;15.45;9.50;;;9.70;99.90;;;;;;5007790;28;20063;-42
2022/06/04 03:31:28;;;;;;;15.05;9.90;;;9.70;99.90;;;;;;5040268;28;20547;-42
2022/06/04 03:33:55;;;;;;;15.23;9.50;;;9.70;99.90;;;;;;5042324;28;20084;-42
2022/06/04 03:36:21;;;;;;;14.57;9.30;;;9.70;99.90;;;;;;5023660;28;20214;-42
2022/06/04 03:38:50;;;;;;;19.90;9.60;;;9.80;99.90;;;;;;5020261;28;20146;-42
2022/06/04 03:41:16;;;;;;;12.60;9.23;;;9.90;99.90;;;;;;5038580;28;20057;-43
2022/06/04 03:43:42;;;;;;;14.82;9.82;;;9.80;99.90;;;;;;5041515;28;20068;-43
2022/06/04 03:46:08;;;;;;;18.42;11.10;;;9.90;99.90;;;;;;5040777;28;20060;-43
2022/06/04 03:48:35;;;;;;;14.85;9.40;;;9.90;99.90;;;;;;5041301;28;20056;-42
2022/06/04 03:51:03;;;;;;;15.15;9.35;;;9.90;99.90;;;;;;5041001;28;20487;-42
2022/06/04 03:53:29;;;;;;;19.05;11.35;;;10.00;99.90;;;;;;5020198;28;20052;-43
2022/06/04 03:55:55;;;;;;;13.85;9.85;;;10.10;99.90;;;;;;5035372;28;20044;-43
2022/06/04 03:58:21;;;;;;;14.38;9.10;;;10.30;99.90;;;;;;5036666;28;20040;-45
2022/06/04 04:00:46;;;;;;;12.93;8.85;;;10.90;99.90;;;;;;5033946;28;20529;-44
2022/06/04 04:03:17;;;;;;;11.85;8.32;;;11.70;99.90;;;;;;5037361;28;20584;-43
2022/06/04 04:05:49;;;;;;;11.38;8.00;;;12.40;99.90;;;;;;5019892;28;20420;-43
2022/06/04 04:08:20;;;;;;;12.13;8.40;;;13.20;99.90;;;;;;5040336;28;20095;-42
2022/06/04 04:10:46;;;;;;;14.27;7.93;;;13.80;99.90;;;;;;5020197;28;20064;-45
2022/06/04 04:13:13;;;;;;;11.73;7.78;;;14.40;99.90;;;;;;5041797;28;20415;-42
2022/06/04 04:15:40;;;;;;;8.88;7.07;;;14.90;99.90;;;;;;5042013;28;20113;-43
2022/06/04 04:18:07;;;;;;;11.13;7.63;;;15.30;99.90;;;;;;5040760;28;20551;-44
2022/06/04 04:20:37;;;;;;;10.10;6.68;;;15.80;99.90;;;;;;5039752;28;20044;-44
2022/06/04 04:23:06;;;;;;;7.90;5.68;;;16.30;99.90;;;;;;5023574;28;20052;-42
2022/06/04 04:25:33;;;;;;;9.68;6.30;;;17.00;99.90;;;;;;5041430;28;20567;-44
2022/06/04 04:28:00;;;;;;;9.45;5.65;;;17.40;99.90;;;;;;5023331;28;20513;-45
2022/06/04 04:30:29;;;;;;;10.32;6.28;;;17.90;99.90;;;;;;5041931;28;20882;-44
2022/06/04 04:32:56;;;;;;;8.35;5.97;;;18.50;99.90;;;;;;5043650;28;20061;-44
2022/06/04 04:35:26;;;;;;;9.57;6.03;;;18.70;99.90;;;;;;5042775;28;20155;-48
2022/06/04 04:37:53;;;;;;;10.13;6.53;;;19.00;99.90;;;;;;5041444;28;20053;-50
2022/06/04 04:40:20;;;;;;;7.30;5.43;;;19.20;99.90;;;;;;5040804;28;20057;-43
2022/06/04 04:42:48;;;;;;;9.85;5.80;;;19.40;99.90;;;;;;5040920;28;20593;-43
2022/06/04 04:45:14;;;;;;;7.43;5.60;;;19.80;99.90;;;;;;5040921;28;20056;-44
2022/06/04 04:47:42;;;;;;;7.25;5.28;;;19.80;99.90;;;;;;5021407;28;20512;-43
2022/06/04 04:50:13;;;;;;;10.05;5.90;;;20.10;99.90;;;;;;5040976;28;20140;-45
2022/06/04 04:52:39;;;;;;;6.88;5.57;;;20.60;99.90;;;;;;5040230;28;20049;-44
2022/06/04 04:55:06;;;;;;;7.75;4.97;;;20.90;99.90;;;;;;5040538;28;20097;-44
2022/06/04 04:57:31;;;;;;;9.43;5.30;;;21.10;99.90;;;;;;5040367;28;20056;-44
2022/06/04 04:59:57;;;;;;;7.18;5.57;;;21.50;99.90;;;;;;5039090;28;20041;-43
2022/06/04 05:02:23;;;;;;;9.70;5.13;;;21.90;99.90;;;;;;5040983;28;20044;-44
2022/06/04 05:04:49;;;;;;;8.02;5.55;;;22.20;98.80;;;;;;5041051;28;20176;-44
2022/06/04 05:07:14;;;;;;;9.05;5.25;;;22.00;98.90;;;;;;5039756;28;20130;-44
2022/06/04 05:09:41;;;;;;;7.00;4.90;;;22.40;98.90;;;;;;5019375;28;20136;-45
2022/06/04 05:12:08;;;;;;;6.00;4.70;;;22.50;96.90;;;;;;5037042;28;20053;-45
2022/06/04 05:14:37;;;;;;;6.00;4.78;;;22.90;97.60;;;;;;5040349;28;20274;-44
2022/06/04 05:17:04;;;;;;;5.93;4.60;;;23.00;97.30;;;;;;5021751;28;20056;-44
2022/06/04 05:19:30;;;;;;;6.93;3.88;;;22.90;96.90;;;;;;5031416;28;20091;-43
2022/06/04 05:21:56;;;;;;;5.50;4.85;;;23.40;96.50;;;;;;5039902;28;20052;-44
2022/06/04 05:24:33;;;;;;;9.98;5.22;;;23.40;95.20;;;;;;5040224;28;20055;-46
2022/06/04 05:27:02;;;;;;;9.80;4.55;;;23.60;94.60;;;;;;5040615;28;20045;-44
2022/06/04 05:29:29;;;;;;;7.05;4.55;;;24.10;95.10;;;;;;5042033;28;20052;-44
2022/06/04 05:31:57;;;;;;;6.30;4.28;;;23.50;93.90;;;;;;5025730;28;20451;-45
2022/06/04 05:34:23;;;;;;;7.13;4.30;;;23.90;94.40;;;;;;5044097;28;20053;-44
2022/06/04 05:36:50;;;;;;;5.88;4.57;;;23.90;94.00;;;;;;5044203;28;20041;-43
2022/06/04 05:39:16;;;;;;;5.50;4.45;;;23.80;94.50;;;;;;5036137;28;20139;-44
2022/06/04 05:41:43;;;;;;;8.02;4.28;;;24.00;93.50;;;;;;5043984;28;20075;-44
2022/06/04 05:44:09;;;;;;;4.78;4.38;;;24.00;93.10;;;;;;5024457;28;20057;-44
2022/06/04 05:46:36;;;;;;;6.55;3.80;;;24.40;92.90;;;;;;5042251;28;20053;-44
2022/06/04 05:49:03;;;;;;;5.88;4.05;;;24.20;92.30;;;;;;5045779;28;20053;-45
2022/06/04 05:51:30;;;;;;;6.72;4.57;;;24.30;92.90;;;;;;5044900;28;20049;-46
2022/06/04 05:53:56;;;;;;;4.40;4.00;;;24.30;92.80;;;;;;5044424;28;20425;-45
2022/06/04 05:56:27;;;;;;;8.00;4.75;;;24.50;92.30;;;;;;5043570;28;20164;-44
2022/06/04 05:58:56;;;;;;;8.40;4.32;;;24.60;92.10;;;;;;5042852;28;20045;-45
2022/06/04 06:01:23;;;;;;;5.88;5.00;;;24.70;92.20;;;;;;5042782;28;20045;-45
2022/06/04 06:03:50;;;;;;;5.60;4.85;;;24.30;91.60;;;;;;5043423;28;20427;-46
2022/06/04 06:06:22;;;;;;;8.02;4.30;;;23.80;92.20;;;;;;5025499;28;20574;-45
2022/06/04 06:08:47;;;;;;;6.28;4.35;;;23.90;92.20;;;;;;5043090;28;20052;-44
2022/06/04 06:11:17;;;;;;;7.43;4.75;;;24.40;92.30;;;;;;5042870;28;20103;-44
2022/06/04 06:13:44;;;;;;;6.57;4.43;;;24.10;91.60;;;;;;5043629;28;20126;-45
2022/06/04 06:16:24;;;;;;;5.97;4.53;;;23.90;91.80;;;;;;5043855;28;20094;-44
2022/06/04 06:18:50;;;;;;;6.25;4.85;;;23.90;92.20;;;;;;5025378;28;20130;-44
2022/06/04 06:21:24;;;;;;;7.32;4.25;;;23.40;92.40;;;;;;5043371;28;20489;-44
2022/06/04 06:23:51;;;;;;;7.80;5.20;;;23.30;92.70;;;;;;5044247;28;20120;-44
2022/06/04 06:26:29;;;;;;;6.80;4.50;;;22.90;92.50;;;;;;5022619;28;20052;-48
2022/06/04 06:28:56;;;;;;;5.40;4.75;;;22.90;93.10;;;;;;5042028;28;20327;-45
2022/06/04 06:31:25;;;;;;;9.07;5.20;;;22.90;93.00;;;;;;5020983;28;20057;-44
2022/06/04 06:33:51;;;;;;;6.10;4.40;;;23.10;92.50;;;;;;5023152;28;20049;-44
2022/06/04 06:36:19;;;;;;;8.80;4.75;;;23.90;92.30;;;;;;5023103;28;20049;-45
2022/06/04 06:38:45;;;;;;;8.40;4.40;;;24.40;91.60;;;;;;5018649;28;20049;-47
2022/06/04 06:41:13;;;;;;;6.07;4.60;;;24.40;91.40;;;;;;5017882;28;20127;-45
2022/06/04 06:43:46;;;;;;;6.82;4.38;;;24.20;91.20;;;;;;5022922;28;20166;-44
2022/06/04 06:46:16;;;;;;;7.35;4.35;;;24.00;92.20;;;;;;5022704;28;20053;-44
2022/06/04 06:48:43;;;;;;;7.60;4.40;;;23.90;91.90;;;;;;5017634;28;20065;-45
2022/06/04 06:51:16;;;;;;;5.07;4.30;;;23.60;91.80;;;;;;5021041;28;20212;-44
2022/06/04 06:53:42;;;;;;;7.90;4.68;;;23.40;91.50;;;;;;5023625;28;20428;-45
2022/06/04 06:56:17;;;;;;;6.35;4.20;;;23.70;92.10;;;;;;5023369;28;20473;-46
2022/06/04 06:58:43;;;;;;;9.13;4.38;;;23.80;92.20;;;;;;5021106;28;20076;-46
2022/06/04 07:01:11;;;;;;;5.50;4.18;;;24.10;91.70;;;;;;5023203;28;20123;-44
2022/06/04 07:03:38;;;;;;;4.97;4.30;;;24.30;91.40;;;;;;5024795;28;20060;-46
2022/06/04 07:06:05;;;;;;;4.85;3.90;;;24.30;91.10;;;;;;5027109;28;20099;-46
2022/06/04 07:08:31;;;;;;;6.03;3.80;;;23.90;91.10;;;;;;5023507;28;20057;-46
2022/06/04 07:10:57;;;;;;;4.78;3.95;;;24.10;91.40;;;;;;5023431;28;20041;-46
2022/06/04 07:13:23;;;;;;;7.43;4.82;;;24.20;91.60;;;;;;5023725;28;20100;-44
2022/06/04 07:15:52;;;;;;;7.05;4.60;;;23.90;91.30;;;;;;5023268;28;20049;-47
2022/06/04 07:18:18;;;;;;;4.50;4.10;;;24.20;91.10;;;;;;5022158;28;20453;-46
2022/06/04 07:20:44;;;;;;;7.90;4.32;;;24.10;91.40;;;;;;5022737;28;20045;-44
2022/06/04 07:23:10;;;;;;;4.90;4.40;;;23.90;91.90;;;;;;5022772;28;20100;-46
2022/06/04 07:25:37;;;;;;;5.00;4.10;;;22.80;92.00;;;;;;5022506;28;20167;-45
2022/06/04 07:28:04;;;;;;;7.05;5.03;;;22.20;92.90;;;;;;5022178;28;20048;-45
2022/06/04 07:30:30;;;;;;;6.80;4.50;;;21.80;93.50;;;;;;5028628;28;20126;-45
2022/06/04 07:32:56;;;;;;;4.28;3.88;;;21.60;94.60;;;;;;5040506;28;20052;-45
2022/06/04 07:35:22;;;;;;;5.22;4.00;;;21.80;93.50;;;;;;5042442;28;20040;-45
2022/06/04 07:37:48;;;;;;;4.13;3.72;;;21.70;93.20;;;;;;5042034;28;20566;-44
2022/06/04 07:40:17;;;;;;;6.15;4.53;;;21.60;94.40;;;;;;5036515;28;20553;-44
2022/06/04 07:42:43;;;;;;;5.68;3.90;;;21.60;93.90;;;;;;5023358;28;20128;-44
2022/06/04 07:45:09;;;;;;;5.00;4.50;;;21.40;94.90;;;;;;5042055;28;20044;-46
2022/06/04 07:47:35;;;;;;;5.47;4.15;;;21.30;94.70;;;;;;5041308;28;20522;-44
2022/06/04 07:50:05;;;;;;;4.65;4.18;;;21.40;94.40;;;;;;5040428;28;20052;-44
2022/06/04 07:52:30;;;;;;;5.10;4.60;;;21.50;94.30;;;;;;5041375;28;20487;-44
2022/06/04 07:54:59;;;;;;;5.72;4.82;;;21.30;94.20;;;;;;5041676;28;20051;-44
2022/06/04 07:57:25;;;;;;;6.85;5.30;;;20.90;94.10;;;;;;5042123;28;20045;-44
2022/06/04 07:59:51;;;;;;;5.93;4.43;;;20.70;95.00;;;;;;5041671;28;20049;-47
2022/06/04 08:02:16;;;;;;;5.93;4.38;;;20.60;95.00;;;;;;5041038;28;20049;-46
2022/06/04 08:04:42;;;;;;;5.95;5.10;;;19.90;95.00;;;;;;5019544;28;20045;-44
2022/06/04 08:07:08;;;;;;;7.95;4.68;;;19.70;96.40;;;;;;5037856;28;20400;-45
2022/06/04 08:09:34;;;;;;;6.45;4.85;;;19.60;96.30;;;;;;5042160;28;20098;-46
2022/06/04 08:12:00;;;;;;;5.50;4.35;;;19.80;96.60;;;;;;5041290;28;20367;-45
2022/06/04 08:14:26;;;;;;;6.18;5.00;;;19.70;96.40;;;;;;5041961;28;20085;-44
2022/06/04 08:16:55;;;;;;;5.85;5.25;;;19.70;96.70;;;;;;5039939;28;20475;-45
2022/06/04 08:19:23;;;;;;;6.47;4.97;;;19.80;96.70;;;;;;5042186;28;20040;-45
2022/06/04 08:21:49;;;;;;;8.93;5.25;;;19.90;97.60;;;;;;5041067;28;20045;-46
2022/06/04 08:24:15;;;;;;;8.98;5.53;;;20.30;98.10;;;;;;5043712;28;20171;-45
2022/06/04 08:26:45;;;;;;;8.10;5.15;;;20.50;96.60;;;;;;5043731;28;20480;-44
2022/06/04 08:29:12;;;;;;;6.78;4.80;;;20.70;96.40;;;;;;5024823;28;20053;-49
2022/06/04 08:31:38;;;;;;;7.53;5.07;;;20.80;97.20;;;;;;5017608;28;20104;-45
2022/06/04 08:34:05;;;;;;;6.65;4.80;;;20.80;96.50;;;;;;5021633;28;20168;-45
2022/06/04 08:36:31;;;;;;;7.18;4.93;;;21.00;96.20;;;;;;5022004;28;20046;-44
2022/06/04 08:39:00;;;;;;;6.15;5.35;;;20.80;95.40;;;;;;5020914;28;20079;-44
2022/06/04 08:42:04;;;;;;;6.10;5.38;;;20.70;95.80;;;;;;5021624;28;20049;-44
2022/06/04 08:44:46;;;;;;;7.75;6.10;;;20.70;96.40;;;;;;5020816;28;20152;-45
2022/06/04 08:47:11;;;;;;;6.43;5.78;;;20.60;96.80;;;;;;5013233;28;20049;-46
2022/06/04 08:49:48;;;;;;;6.90;5.22;;;20.90;97.40;;;;;;5021071;28;20100;-44
2022/06/04 08:52:25;;;;;;;6.28;5.35;;;20.90;96.70;;;;;;5019799;28;20088;-46
2022/06/04 08:57:50;;;;;;;7.32;5.50;;;20.70;96.50;;;;;;5020618;28;20049;-44
2022/06/04 09:00:48;;;;;;;6.10;5.47;;;20.60;97.30;;;;;;5019171;28;20058;-47
2022/06/04 09:03:16;;;;;;;7.80;5.43;;;20.70;98.40;;;;;;4939452;28;20114;-44
2022/06/04 09:05:57;;;;;;;8.32;6.05;;;20.20;97.10;;;;;;4926873;29;20647;-45
2022/06/04 09:08:36;;;;;;;10.18;5.97;;;20.30;98.80;;;;;;4942878;29;20546;-48
2022/06/04 09:11:04;;;;;;;6.22;5.03;;;20.50;98.70;;;;;;4943427;29;20139;-44
2022/06/04 09:13:44;;;;;;;7.20;5.10;;;20.50;98.10;;;;;;4943708;29;20051;-45
2022/06/04 09:16:48;;;;;;;8.48;5.88;;;20.30;97.70;;;;;;4943148;29;20075;-44
2022/06/04 09:19:27;;;;;;;9.30;5.50;;;20.20;98.10;;;;;;4926932;29;20058;-47
2022/06/04 09:21:54;;;;;;;9.00;6.07;;;20.10;99.00;;;;;;4944048;29;20522;-45
2022/06/04 09:24:20;;;;;;;9.27;5.63;;;20.10;99.00;;;;;;4943722;29;20055;-45
2022/06/04 09:27:05;;;;;;;8.05;5.20;;;20.20;99.30;;;;;;4942230;29;20490;-44
2022/06/04 09:30:04;;;;;;;6.85;4.72;;;20.30;99.90;;;;;;4943203;29;20490;-46
2022/06/04 09:33:21;;;;;;;7.10;5.20;;;20.60;99.40;;;;;;4943401;29;20051;-44
2022/06/04 09:35:47;;;;;;;9.30;5.00;;;20.30;96.90;;;;;;4904987;29;20091;-46
2022/06/04 09:38:23;;;;;;;7.07;5.18;;;20.20;97.20;;;;;;4904305;29;20665;-44
2022/06/04 09:41:00;;;;;;;6.57;4.88;;;20.10;98.50;;;;;;4942692;28;20058;-45
2022/06/04 09:43:27;;;;;;;6.82;5.30;;;20.00;98.00;;;;;;4962685;28;20081;-46
2022/06/04 09:46:01;;;;;;;8.27;5.43;;;20.10;99.10;;;;;;4962251;28;20070;-44
2022/06/04 09:48:36;;;;;;;7.55;5.65;;;20.20;98.90;;;;;;4962332;28;20141;-44
2022/06/04 09:51:15;;;;;;;9.27;6.45;;;20.50;98.80;;;;;;4966107;28;20074;-47
2022/06/04 09:53:47;;;;;;;6.53;5.60;;;20.40;98.70;;;;;;4956378;28;20047;-44
2022/06/04 09:56:27;;;;;;;7.75;5.97;;;20.30;98.40;;;;;;4962719;28;20190;-46
2022/06/04 09:58:53;;;;;;;10.25;5.95;;;20.30;99.90;;;;;;4961443;28;20055;-46
2022/06/04 10:01:21;;;;;;;8.50;5.68;;;20.30;99.00;;;;;;4962008;28;20053;-45
2022/06/04 10:04:14;;;;;;;6.85;5.90;;;20.50;98.70;;;;;;4962497;28;20055;-45
2022/06/04 10:06:40;;;;;;;8.80;6.88;;;20.40;97.80;;;;;;4956899;28;20165;-44
2022/06/04 10:12:07;;;;;;;8.52;6.13;;;20.70;98.80;;;;;;5016316;28;20240;-45
2022/06/04 10:14:37;;;;;;;8.57;6.22;;;20.70;99.20;;;;;;5022967;28;20166;-44
2022/06/04 10:17:16;;;;;;;6.97;4.60;;;20.70;98.90;;;;;;5022967;28;20049;-44
2022/06/04 10:19:54;;;;;;;6.75;5.95;;;20.70;98.00;;;;;;5021450;28;20047;-47
2022/06/04 10:22:20;;;;;;;10.77;5.78;;;20.70;96.90;;;;;;5023425;28;20127;-45
2022/06/04 10:24:52;;;;;;;8.13;4.78;;;20.80;98.70;;;;;;5023562;28;20523;-44
2022/06/04 10:27:23;;;;;;;6.35;4.55;;;20.60;97.20;;;;;;5023049;28;20053;-44
2022/06/04 10:30:01;;;;;;;8.80;4.90;;;20.60;97.30;;;;;;5021854;28;20590;-47
2022/06/04 10:32:55;;;;;;;5.57;4.00;;;20.70;98.30;;;;;;5043056;28;20060;-44
2022/06/04 10:35:39;;;;;;;5.80;4.13;;;20.80;99.70;;;;;;5026915;28;20546;-47
2022/06/04 10:38:29;;;;;;;6.70;4.50;;;20.80;96.50;;;;;;5042571;28;20049;-45
2022/06/04 10:41:02;;;;;;;6.50;5.00;;;20.70;97.60;;;;;;5035515;28;20416;-44
2022/06/04 10:43:33;;;;;;;8.93;5.03;;;20.50;97.20;;;;;;5043062;28;20049;-45
2022/06/04 10:46:20;;;;;;;8.93;5.10;;;20.50;98.50;;;;;;5042577;28;20045;-44
2022/06/04 10:49:30;;;;;;;5.60;4.85;;;20.70;99.50;;;;;;5042701;28;20126;-45
2022/06/04 10:52:34;;;;;;;5.10;4.28;;;20.80;99.90;;;;;;4941721;29;20059;-45
2022/06/04 10:55:00;;;;;;;7.60;4.97;;;20.90;99.50;;;;;;4885541;29;20064;-44
2022/06/04 10:57:32;;;;;;;5.57;4.40;;;21.00;99.30;;;;;;4885140;29;20083;-45
2022/06/04 11:00:20;;;;;;;5.35;4.20;;;20.90;98.10;;;;;;4884925;29;20056;-47
2022/06/04 11:03:17;;;;;;;7.45;4.47;;;20.70;98.70;;;;;;4883450;29;20100;-45
2022/06/04 11:06:18;;;;;;;6.50;4.35;;;20.60;97.40;;;;;;4885541;29;20476;-44
2022/06/04 11:08:51;;;;;;;5.05;4.50;;;20.80;98.40;;;;;;4866118;29;20061;-48
2022/06/04 11:11:29;;;;;;;5.20;4.30;;;20.80;97.20;;;;;;4866924;29;20101;-44
2022/06/04 11:14:02;;;;;;;3.78;3.17;;;20.70;98.50;;;;;;4867396;29;20064;-46
2022/06/04 11:16:34;;;;;;;6.60;4.15;;;20.60;98.20;;;;;;4867522;29;20101;-46
2022/06/04 11:19:29;;;;;;;4.35;3.40;;;20.70;97.60;;;;;;4869458;29;20069;-49
2022/06/04 11:22:10;;;;;;;5.70;4.25;;;20.80;97.30;;;;;;4866562;29;20068;-46
2022/06/04 11:27:54;;;;;;;7.20;5.25;;;21.00;98.90;;;;;;4868062;29;20064;-46
2022/06/04 11:30:39;;;;;;;6.90;4.93;;;21.00;99.40;;;;;;4892134;28;20583;-45
2022/06/04 11:33:05;;;;;;;4.60;4.20;;;20.90;98.60;;;;;;4979304;28;20055;-45
2022/06/04 11:36:24;;;;;;;5.28;4.78;;;20.90;99.10;;;;;;4978312;28;20057;-45
2022/06/04 11:39:10;;;;;;;8.23;4.68;;;20.80;98.30;;;;;;4916936;29;20285;-44
2022/06/04 11:41:54;;;;;;;7.18;4.30;;;20.90;99.30;;;;;;4921170;29;20100;-45
2022/06/04 11:44:26;;;;;;;5.35;4.00;;;20.80;99.90;;;;;;4921378;29;20426;-44
2022/06/04 11:47:02;;;;;;;6.25;4.50;;;20.70;98.80;;;;;;4959940;28;20572;-44
2022/06/04 11:50:09;;;;;;;5.68;3.97;;;20.70;99.40;;;;;;4978815;28;20464;-46
2022/06/04 11:52:58;;;;;;;6.32;4.15;;;20.80;99.10;;;;;;4978857;28;20534;-44
2022/06/04 11:55:28;;;;;;;6.38;4.22;;;20.60;98.90;;;;;;4973175;28;20082;-46
2022/06/04 11:58:30;;;;;;;7.38;4.93;;;20.60;97.40;;;;;;4974294;28;20062;-44
2022/06/04 12:01:01;;;;;;;8.82;4.18;;;20.50;99.50;;;;;;4939626;29;20071;-46
2022/06/04 12:03:48;;;;;;;4.57;3.65;;;20.50;99.80;;;;;;4937793;28;20055;-46
2022/06/04 12:07:00;;;;;;;6.30;4.40;;;20.60;98.40;;;;;;4915577;28;20171;-45
2022/06/04 12:10:11;;;;;;;6.53;4.38;;;20.40;98.30;;;;;;4863177;29;20478;-47
2022/06/04 12:12:55;;;;;;;5.88;4.43;;;20.40;99.90;;;;;;4847619;29;20073;-46
2022/06/04 12:15:32;;;;;;;6.32;3.95;;;20.50;98.30;;;;;;4881387;29;20147;-46
2022/06/04 12:18:27;;;;;;;5.68;4.07;;;20.50;99.80;;;;;;4877801;29;20064;-48
2022/06/04 12:26:39;;;;;;;7.03;4.68;;;20.50;98.70;;;;;;4882302;29;20056;-47
2022/06/04 12:29:31;;;;;;;7.53;4.10;;;20.60;99.90;;;;;;4867768;29;20060;-46
2022/06/04 12:32:18;;;;;;;5.65;3.65;;;20.60;99.00;;;;;;4882693;29;20131;-45
2022/06/04 12:34:45;;;;;;;6.68;3.90;;;20.60;97.90;;;;;;4904997;29;20123;-46
2022/06/04 12:37:28;;;;;;;5.63;4.57;;;20.60;99.00;;;;;;4939023;29;20146;-48
2022/06/04 12:39:54;;;;;;;;;;;20.60;99.30;;;;;;4936221;29;20151;-46
2022/06/04 12:42:21;;;;;;;8.57;4.22;;;20.60;98.80;;;;;;4927862;29;19930;-47
2022/06/04 12:45:31;;;;;;;4.85;3.88;;;20.60;99.20;;;;;;4955404;28;20207;-45
2022/06/04 12:47:58;;;;;;;7.95;5.28;;;20.60;98.80;;;;;;5043847;28;20053;-46
2022/06/04 12:50:32;;;;;;;7.18;5.10;;;20.50;98.70;;;;;;5023774;28;20107;-45
2022/06/04 12:53:19;;;;;;;8.70;5.07;;;20.40;99.10;;;;;;5039379;28;20570;-44
2022/06/04 12:55:52;;;;;;;7.40;4.97;;;20.60;99.50;;;;;;5043680;28;20394;-45
2022/06/04 12:58:47;;;;;;;8.05;4.50;;;20.60;99.50;;;;;;5043605;28;20054;-45
2022/06/04 13:01:16;;;;;;;7.75;4.80;;;20.60;99.20;;;;;;5040785;28;20088;-46
2022/06/04 13:03:44;;;;;;;8.25;4.95;;;20.50;99.00;;;;;;5044526;28;20053;-46
2022/06/04 13:06:12;;;;;;;7.50;4.32;;;20.70;99.90;;;;;;5025533;28;20111;-46
2022/06/04 13:09:16;;;;;;;9.05;4.88;;;20.60;99.60;;;;;;5044505;28;20138;-48
2022/06/04 13:11:51;;;;;;;;;;;20.50;99.20;;;;;;5026476;28;20053;-45
2022/06/04 13:14:32;;;;;;;7.80;5.35;;;20.20;99.30;;;;;;5044344;28;20359;-44
2022/06/04 13:17:11;;;;;;;6.57;5.13;;;19.90;99.90;;;;;;5042912;28;20135;-45
2022/06/04 13:19:49;;;;;;;9.32;5.90;;;19.90;99.90;;;;;;5040646;28;20073;-45
2022/06/04 13:22:23;;;;;;;6.28;4.72;;;20.00;99.90;;;;;;5039553;28;20243;-44
2022/06/04 13:24:49;;;;;;;6.60;5.32;;;20.00;99.90;;;;;;5039600;28;20419;-45
2022/06/04 13:27:24;;;;;;;7.63;5.47;;;19.80;99.90;;;;;;5039958;28;20045;-44
2022/06/04 13:29:56;;;;;;;10.45;5.55;;;20.00;99.90;;;;;;5017663;28;20092;-44
2022/06/04 13:32:23;;;;;;;11.82;6.82;;;20.00;99.90;;;;;;5044660;28;20055;-45
2022/06/04 13:34:49;;;;;;;12.48;7.10;;;19.90;99.90;;;;;;5034420;28;20053;-47
2022/06/04 13:37:24;;;;;;;8.15;6.65;;;19.90;99.90;;;;;;5043441;28;20045;-45